Airfield :
LOGIN :

Register | Disclaimer

   EN    FR    IT 

 










Legend :    VFR   Marginal VFR   IFR   Intensive IFR   Very Intensive IFR
Visi :
Ceiling :
>= 8 km
>= 3000ft
5 to 8 km
1000 to 3000 ft
1500m to 5 km
500 to 1000 ft
800 to 1500m
200 to 500 ft
< 800m
< 200 ft
Symbols :   Thunderstorms  Fog  Heavy snow  Heavy precipitations  Wind > 20 kt
SIGMETs :     Misc.  Thunderstorms  Icing  Turbulence  Mountain Waves  Volcanic Ashes







- Airport Elevation : 13 ft
- IATA code : LYX
- Download approach charts


EGMD - Lydd

CURRENT METAR :
  • 240820Z 24015KT 5000 DZ BKN007 OVC009 17/16 Q1015

EXPIRED METARs :
  • 240750Z 24015KT 9999 BKN009 18/16 Q1015
  • 240720Z 24015KT 9999 BKN008 OVC013 18/16 Q1015
  • 240650Z AUTO 24013KT 9999 OVC009/// 17/16 Q1015
  • 240620Z AUTO 25014KT 9999 OVC010/// 17/15 Q1015
  • 240550Z AUTO 25016KT 9999 OVC011/// 17/15 Q1015
  • 240520Z AUTO 25014KT 9999 OVC012/// 17/15 Q1015

TAF TAF EGMD
Valid from the 24 at 06:00 until the 24 at 15:00 UTC


240504Z 2406/2415 24015KT 9999 BKN012
PROB40
TEMPO 2406/2415 25018G28KT
BECMG 2407/2410 BKN007
TEMPO 2408/2415 6000 -RADZ BKN004
PROB30
TEMPO 2409/2415 1200 BR BKN001
ATIS : +44 1797 322 422
No reported NOTAMs for that airfield.



MET'MAP, your aeronautical weather chart ! - Copyright ORBIFLY December 2007 - Disclaimer

ORBIFLY MET'MAP TEAM :

Programming & Development : Alexandra Zaïnal
Concept & Development : Baudouin d'Aumeries
Co-Development & Prog : Marc-Olivier Méhu
Technical & hardware support : Manuel Goepfert

Contact : metmap@orbifly.com




SOURCES & CREDITS :

   NOAA